AirNav   Pilot Hours Calculator
 
 1445 users online  

5CL0 Grupe Ranch Airport
Mariposa, California, USA

GOING TO MARIPOSA?


FAA INFORMATION EFFECTIVE 23 MAY 2019

Location

FAA Identifier: 5CL0
Lat/Long: 37-20-25.7900N / 119-51-43.5800W
37-20.429833N / 119-51.726333W
37.3404972 / -119.8621056
(estimated)
Elevation: 1625 ft. / 495 m (estimated)
Variation: 15E (1990)
From city: 10 miles SE of MARIPOSA, CA
Time zone: UTC -7 (UTC -8 during Standard Time)
Zip code: 95338

Airport Operations

Airport use: Private use. Permission required prior to landing
Activation date: 07/1993
Control tower: no
ARTCC: OAKLAND CENTER
FSS: RANCHO MURIETA FLIGHT SERVICE STATION
Attendance: UNATNDD
Wind indicator: yes
Segmented circle: no

Airport Communications

WX AWOS-3 at MPI (13 nm NW): 135.6 (209-966-2912)

Nearby radio navigation aids

VOR radial/distance  VOR name  Freq  Var
FRAr301/19.1FRIANT VORTAC115.6017E
HYPr059/26.7EL NIDO VOR/DME114.2015E
CZQr340/27.5CLOVIS VORTAC112.9015E

Airport Services

Runway Information

Runway 9/27

Dimensions: 2800 x 50 ft. / 853 x 15 m
Surface: asphalt
RUNWAY 9  RUNWAY 27
Traffic pattern: leftleft
Obstructions: none15 ft. pline, 100 ft. from runway

Airport Ownership and Management from official FAA records

Ownership: Privately-owned
Owner: GREENLAW FRITZ GRUPE JR
PO BOX 7576
STOCKTON, CA 95267
Phone 209-366-1400
Manager: KELLY WILLIAMS
PO BOX 207007
STOCKTON, CA 95267
Phone 209-401-3094
209-966-5578

Instrument Procedures

There are no published instrument procedures at 5CL0.

Some nearby airports with instrument procedures:

KMPI - Mariposa-Yosemite Airport (13 nm NW)
KMAE - Madera Municipal Airport (24 nm SW)
KMCE - Merced Regional Airport/Macready Field (31 nm W)
KMER - Castle Airport (34 nm W)
KFAT - Fresno Yosemite International Airport (35 nm S)
 
Loc | Ops | Rwys | IFR | FBO | Links
Com | Nav | Svcs | Stats | Notes
Area around 5CL0 (Grupe Ranch Airport)
 
Road maps at: MapQuest Bing Google
 
Aerial photo
No photo
 
Sectional chart

 
Airport distance calculator
Flying to Grupe Ranch Airport? Find the distance to fly.

From to 5CL0

Sunrise and sunset
Times for 24-May-2019
 Local
(UTC-7)
 Zulu
(UTC)
Morning civil twilight05:1512:15
Sunrise05:4512:45
Sunset20:0703:07
Evening civil twilight20:3703:37

Current date and time
Zulu (UTC)  24-May-2019 18:13:41
Local (UTC-7)  24-May-2019 11:13:41
 
METAR
KMAE 
25nm SW 
241753Z AUTO 00000KT 10SM SCT022 BKN050 21/12 A3002 RMK AO2 SLP164 T02060122 10211 20139 58002
KMCE 
31nm W 
241753Z AUTO 17006KT 10SM CLR 19/13 A3001 RMK AO2 SLP161 T01940133 10194 20117 53001
KMER 
34nm W 
241745Z 00000KT 10SM SKC 22/15 A3001
KFAT 
34nm S 
241753Z 12003KT 10SM FEW060 SCT200 19/11 A3002 RMK AO2 SLP162 CLDS TPG MTNS DSNT N-E-S T01940106 10194 20144 58001
KFCH 
37nm S 
241755Z AUTO 00000KT 10SM CLR 19/12 A3002 RMK A01
KO22 
49nm NW 
241755Z AUTO 23004KT 7SM BKN022 17/11 A3002 RMK A01
TAF
KMCE 
31nm W 
241720Z 2418/2518 30005KT P6SM SCT060
KMER 
34nm W 
241720Z 2418/2518 30005KT P6SM SCT060
KFAT 
34nm S 
241720Z 2418/2518 VRB05KT P6SM SCT060
NOTAMs
Click for the latest NOTAMs
NOTAMs are issued by the DoD/FAA and will open in a separate window not controlled by AirNav.

 

 
 

Would you like to see your business listed on this page?

 If your business provides an interesting product or service to pilots, flight crews, aircraft, or users of the Grupe Ranch Airport, you should consider listing it here.  To start the listing process, click on the button below
 
Add a business
 

Other Pages about Grupe Ranch Airport

Update a link
 
Copyright © AirNav, LLC. All rights reserved. Privacy Policy  Contact